Time,TemperatureF,DewpointF,PressureIn,WindDirection,WindDirectionDegrees,WindSpeedMPH,WindSpeedGustMPH,Humidity,HourlyPrecipIn,Conditions,Clouds,dailyrainin,SoftwareType,DateUTC
2013-01-15 00:02:00,36.5,14.5,30.40,NNW,346,0.0,0.0,40,0.00,,,0.00,meteohub,2013-01-15 08:02:00,
2013-01-15 00:22:00,36.1,14.2,30.40,NNW,346,0.0,0.0,40,0.00,,,0.00,meteohub,2013-01-15 08:22:00,
2013-01-15 00:42:00,36.3,14.4,30.43,NNW,346,0.0,0.0,40,0.00,,,0.00,meteohub,2013-01-15 08:42:00,
2013-01-15 01:02:00,35.6,13.6,30.43,NNW,346,0.0,0.0,40,0.00,,,0.00,meteohub,2013-01-15 09:02:00,
2013-01-15 01:22:00,35.2,13.3,30.43,NNW,346,0.0,0.0,40,0.00,,,0.00,meteohub,2013-01-15 09:22:00,
2013-01-15 01:42:00,34.9,12.9,30.43,NNW,346,0.0,0.0,40,0.00,,,0.00,meteohub,2013-01-15 09:42:00,
2013-01-15 02:02:00,34.9,12.9,30.46,East,85,0.0,4.0,40,0.00,,,0.00,meteohub,2013-01-15 10:02:00,
2013-01-15 02:22:00,35.8,13.8,30.46,NE,56,0.0,4.0,40,0.00,,,0.00,meteohub,2013-01-15 10:22:00,
2013-01-15 02:42:00,35.8,13.8,30.46,NE,56,0.0,0.0,40,0.00,,,0.00,meteohub,2013-01-15 10:42:00,
2013-01-15 03:02:00,35.4,13.5,30.46,NE,56,0.0,0.0,40,0.00,,,0.00,meteohub,2013-01-15 11:02:00,
2013-01-15 03:22:00,34.5,12.7,30.46,NE,56,0.0,0.0,40,0.00,,,0.00,meteohub,2013-01-15 11:22:00,
2013-01-15 03:42:00,34.5,12.7,30.46,NE,56,0.0,0.0,40,0.00,,,0.00,meteohub,2013-01-15 11:42:00,
2013-01-15 04:02:00,34.9,12.9,30.46,NE,56,0.0,3.0,40,0.00,,,0.00,meteohub,2013-01-15 12:02:00,
2013-01-15 04:22:00,35.2,13.3,30.46,NNE,20,0.0,4.0,40,0.00,,,0.00,meteohub,2013-01-15 12:22:00,
2013-01-15 04:42:00,34.5,12.7,30.46,NNE,26,0.0,2.0,40,0.00,,,0.00,meteohub,2013-01-15 12:42:00,
2013-01-15 05:02:00,33.6,12.4,30.46,NNE,26,0.0,0.0,41,0.00,,,0.00,meteohub,2013-01-15 13:02:00,
2013-01-15 05:22:00,33.1,12.0,30.46,NNE,26,0.0,0.0,41,0.00,,,0.00,meteohub,2013-01-15 13:22:00,
2013-01-15 05:42:00,33.1,12.0,30.46,NNE,26,0.0,0.0,41,0.00,,,0.00,meteohub,2013-01-15 13:42:00,
2013-01-15 06:02:00,32.7,11.7,30.46,NNE,26,0.0,0.0,41,0.00,,,0.00,meteohub,2013-01-15 14:02:00,
2013-01-15 06:22:00,33.4,12.2,30.46,NNE,26,0.0,0.0,41,0.00,,,0.00,meteohub,2013-01-15 14:22:00,
2013-01-15 06:42:00,32.7,11.7,30.46,NNE,26,0.0,0.0,41,0.00,,,0.00,meteohub,2013-01-15 14:42:00,
2013-01-15 07:02:00,32.7,11.7,30.49,NNE,26,0.0,0.0,41,0.00,,,0.00,meteohub,2013-01-15 15:02:00,
2013-01-15 07:22:00,32.9,11.8,30.49,NNE,26,0.0,0.0,41,0.00,,,0.00,meteohub,2013-01-15 15:22:00,
2013-01-15 07:42:00,34.3,12.6,30.49,NNE,26,0.0,0.0,40,0.00,,,0.00,meteohub,2013-01-15 15:42:00,
2013-01-15 08:02:00,36.7,14.5,30.49,NNE,26,0.0,0.0,40,0.00,,,0.00,meteohub,2013-01-15 16:02:00,
2013-01-15 08:22:00,38.5,15.6,30.49,NNE,26,0.0,0.0,39,0.00,,,0.00,meteohub,2013-01-15 16:22:00,
2013-01-15 08:42:00,41.2,18.1,30.52,North,9,0.0,4.0,39,0.00,,,0.00,meteohub,2013-01-15 16:42:00,
2013-01-15 09:02:00,44.2,20.3,30.52,North,9,3.0,0.0,38,0.00,,,0.00,meteohub,2013-01-15 17:02:00,
2013-01-15 09:22:00,47.1,22.1,30.52,NE,35,3.0,6.0,37,0.00,,,0.00,meteohub,2013-01-15 17:22:00,
2013-01-15 09:42:00,49.1,23.9,30.52,North,353,3.0,5.0,37,0.00,,,0.00,meteohub,2013-01-15 17:42:00,
2013-01-15 10:02:00,50.9,25.5,30.52,North,353,3.0,5.0,37,0.00,,,0.00,meteohub,2013-01-15 18:02:00,
2013-01-15 10:22:00,53.1,26.8,30.52,NW,309,4.0,5.0,36,0.00,,,0.00,meteohub,2013-01-15 18:22:00,
2013-01-15 10:42:00,55.0,28.6,30.49,NNW,332,4.0,7.0,36,0.00,,,0.00,meteohub,2013-01-15 18:42:00,
2013-01-15 11:02:00,56.1,28.8,30.49,NW,317,6.0,8.0,35,0.00,,,0.00,meteohub,2013-01-15 19:02:00,
2013-01-15 11:22:00,56.8,29.5,30.49,West,272,6.0,11.0,35,0.00,,,0.00,meteohub,2013-01-15 19:22:00,
2013-01-15 11:42:00,57.2,29.8,30.46,WSW,250,6.0,11.0,35,0.00,,,0.00,meteohub,2013-01-15 19:42:00,
2013-01-15 12:02:00,57.4,30.0,30.46,West,271,6.0,9.0,35,0.00,,,0.00,meteohub,2013-01-15 20:02:00,
2013-01-15 12:22:00,57.6,30.0,30.43,West,265,11.0,12.0,35,0.00,,,0.00,meteohub,2013-01-15 20:22:00,
2013-01-15 12:42:00,57.7,30.2,30.43,WSW,256,6.0,11.0,35,0.00,,,0.00,meteohub,2013-01-15 20:42:00,
2013-01-15 13:02:00,59.0,31.5,30.43,West,264,9.0,12.0,35,0.00,,,0.00,meteohub,2013-01-15 21:02:00,
2013-01-15 13:22:00,59.2,31.5,30.43,West,263,6.0,11.0,35,0.00,,,0.00,meteohub,2013-01-15 21:22:00,
2013-01-15 13:42:00,60.6,32.9,30.43,WNW,284,11.0,11.0,35,0.00,,,0.00,meteohub,2013-01-15 21:42:00,
2013-01-15 14:02:00,61.2,32.5,30.40,West,280,11.0,12.0,34,0.00,,,0.00,meteohub,2013-01-15 22:02:00,
2013-01-15 14:22:00,60.6,32.9,30.40,WNW,291,9.0,13.0,35,0.00,,,0.00,meteohub,2013-01-15 22:22:00,
2013-01-15 14:42:00,60.6,32.9,30.40,WNW,286,9.0,13.0,35,0.00,,,0.00,meteohub,2013-01-15 22:42:00,
2013-01-15 15:02:00,60.6,32.9,30.40,WNW,303,8.0,14.0,35,0.00,,,0.00,meteohub,2013-01-15 23:02:00,
2013-01-15 15:22:00,60.8,32.2,30.40,NW,307,8.0,12.0,34,0.00,,,0.00,meteohub,2013-01-15 23:22:00,
2013-01-15 15:42:00,60.4,32.7,30.40,West,273,6.0,11.0,35,0.00,,,0.00,meteohub,2013-01-15 23:42:00,
2013-01-15 16:02:00,60.3,32.5,30.40,WNW,300,8.0,10.0,35,0.00,,,0.00,meteohub,2013-01-16 00:02:00,
2013-01-15 16:22:00,59.4,31.6,30.40,NNW,334,7.0,9.0,35,0.00,,,0.00,meteohub,2013-01-16 00:22:00,
2013-01-15 16:42:00,57.7,30.2,30.40,WSW,245,3.0,8.0,35,0.00,,,0.00,meteohub,2013-01-16 00:42:00,
2013-01-15 17:02:00,55.2,28.8,30.43,NW,325,6.0,7.0,36,0.00,,,0.00,meteohub,2013-01-16 01:02:00,
2013-01-15 17:22:00,53.1,26.8,30.43,NW,324,3.0,5.0,36,0.00,,,0.00,meteohub,2013-01-16 01:22:00,
2013-01-15 17:42:00,50.9,25.5,30.43,North,4,0.0,4.0,37,0.00,,,0.00,meteohub,2013-01-16 01:42:00,
2013-01-15 18:02:00,49.3,24.1,30.43,North,2,0.0,4.0,37,0.00,,,0.00,meteohub,2013-01-16 02:02:00,
2013-01-15 18:22:00,48.2,23.2,30.43,North,2,0.0,0.0,37,0.00,,,0.00,meteohub,2013-01-16 02:22:00,
2013-01-15 18:42:00,47.5,22.5,30.43,North,2,0.0,0.0,37,0.00,,,0.00,meteohub,2013-01-16 02:42:00,
2013-01-15 19:02:00,46.9,22.1,30.43,NNE,33,0.0,3.0,37,0.00,,,0.00,meteohub,2013-01-16 03:02:00,
2013-01-15 19:22:00,46.4,21.6,30.43,NNW,342,0.0,0.0,37,0.00,,,0.00,meteohub,2013-01-16 03:22:00,
2013-01-15 19:42:00,46.2,21.9,30.43,North,353,0.0,0.0,38,0.00,,,0.00,meteohub,2013-01-16 03:42:00,
2013-01-15 20:02:00,45.1,21.0,30.43,North,353,0.0,0.0,38,0.00,,,0.00,meteohub,2013-01-16 04:02:00,
2013-01-15 20:22:00,44.2,20.3,30.43,North,353,0.0,0.0,38,0.00,,,0.00,meteohub,2013-01-16 04:22:00,
2013-01-15 20:42:00,43.2,19.2,30.43,North,353,0.0,0.0,38,0.00,,,0.00,meteohub,2013-01-16 04:42:00,
2013-01-15 21:02:00,42.6,19.4,30.43,North,353,0.0,0.0,39,0.00,,,0.00,meteohub,2013-01-16 05:02:00,
2013-01-15 21:22:00,42.3,19.0,30.43,North,353,0.0,0.0,39,0.00,,,0.00,meteohub,2013-01-16 05:22:00,
2013-01-15 21:42:00,42.4,19.2,30.43,North,353,0.0,0.0,39,0.00,,,0.00,meteohub,2013-01-16 05:42:00,
2013-01-15 22:02:00,41.7,18.5,30.43,North,353,0.0,0.0,39,0.00,,,0.00,meteohub,2013-01-16 06:02:00,
2013-01-15 22:22:00,41.0,18.0,30.43,North,353,0.0,0.0,39,0.00,,,0.00,meteohub,2013-01-16 06:22:00,
2013-01-15 22:42:00,40.3,17.2,30.43,North,353,0.0,0.0,39,0.00,,,0.00,meteohub,2013-01-16 06:42:00,
2013-01-15 23:02:00,40.1,17.8,30.43,North,353,0.0,0.0,40,0.00,,,0.00,meteohub,2013-01-16 07:02:00,
2013-01-15 23:22:00,39.7,17.4,30.43,North,353,0.0,0.0,40,0.00,,,0.00,meteohub,2013-01-16 07:22:00,
2013-01-15 23:42:00,39.9,17.6,30.43,North,353,0.0,0.0,40,0.00,,,0.00,meteohub,2013-01-16 07:42:00,